KNGP/NGP METAR and TAF weather

Enter ICAO airport designator
Station Type Date Time Source
KNGP METAR 2021/09/27 05:56 UTC NOAA

KNGP 270556Z AUTO 14008KT 10SM CLR 26/21 A3000 RMK AO2 SLP158 T02560206 10278 20256 403170211 50003


Station Type Date Time Source
KNGP Decoded METAR 2021/09/27 05:56 UTC NOAA

CORPUS CHRISTI NAVAL AIR STN, TX, United States (KNGP) 27-41N 097-17W
Sep 27, 2021 - 01:56 AM EDT / 2021.09.27 0556 UTC
Wind: from the SE (140 degrees) at 9 MPH (8 KT):0
Visibility: 10 mile(s):0
Sky conditions: clear
Temperature: 78.1 F (25.6 C)
Dew Point: 69.1 F (20.6 C)
Relative Humidity: 73%
Pressure (altimeter): 30 in. Hg (1015 hPa)
Pressure tendency: 0.01 inches (0.3 hPa) higher than three hours ago
ob: KNGP 270556Z AUTO 14008KT 10SM CLR 26/21 A3000 RMK AO2 SLP158 T02560206 10278 20256 403170211 50003
cycle: 6

Station Type Date Time Source
KNGP TAF 2021/09/26 23:58 UTC NOAA

TAF KNGP 2623/2723 10010KT 9999 SCT020 OVC030 QNH2998INS AUTOMATED SENSOR METWATCH 2623 TIL 2711 T24/2709Z T32/2720Z FN00243

Example: see airport list